Forside
METAR-TAF:

METAR-TAF

Lufthavne :

Muskegon County Airport

Muskegon, Michigan, USA

Breddekreds: 43-10-16N, længdekreds: 086-14-12W, højde: 191 m

Aktuelle vejr

Denne rapport blev lavet for 26 minutter siden, kl. 08:55 UTC
Vind 10 kt fra sydsydvest
Temperatur 5°C
Fugtighed 70%
Tryk 1016 hPa
Sigt: 16.1 km
Overskyet i en højde af 4900 ft

METAR: KMKG 130855Z AUTO 20010KT 10SM OVC049 05/00 A2999 RMK AO2 SLP162 T00500000 56008

Tid: 04:21 (09:21 UTC)

Vejrudsigter

Denne rapport blev lavet for 3 timer og 41 minutter siden, kl. 05:40 UTC
Foreløbig gælder fra 13 på 06 UTC til 14 på 06 UTC
Vind 14 kt fra syd med vindstød på up til 22 kt
Sigt: 10 km
Overskyet i en højde af 4500 ft
Fra 13 på 1000 UTC
Vind 9 kt fra sydsydvest
Sigt: 10 km
Overskyet i en højde af 3000 ft
Fra 13 på 1400 UTC
Vind 6 kt fra sydsydvest
Sigt: 10 km
Overskyet i en højde af 1800 ft

TAF: KMKG 130540Z 1306/1406 19014G22KT P6SM OVC045 FM131000 20009KT P6SM OVC030 FM131400 20006KT P6SM OVC018

Vejrobservationer og prognoser fra mere end 4000 lufthavne (METAR og TAF).

De gule og røde prikker repræsenterer de meteorologiske stationer.

Flyt musen over at se navnet på stationen.

Så klik over at se vejr observationer og prognoser.

At skifte det kort: Klik på de grønne knapper med et sort kors for at zoome ind; på den grønne knap med en bindestreg for at zoome ud; eller på de grønne pile for tilstødende kort.


METAR-TAF: